createdAt,value
2023-05-16T00:00:09.254Z,98123.03
2023-05-16T00:03:12.397Z,98112.47
2023-05-16T00:06:13.808Z,98111.66
2023-05-16T00:09:15.222Z,98109.94
2023-05-16T00:12:17.846Z,98107.34
2023-05-16T00:15:20.356Z,98108.31
2023-05-16T00:18:22.242Z,98107.41
2023-05-16T00:21:23.981Z,98103.03
2023-05-16T00:24:25.785Z,98104.84
2023-05-16T00:27:27.142Z,98096.94
2023-05-16T00:30:28.853Z,98099.78
2023-05-16T00:33:30.602Z,98091.25
2023-05-16T00:36:32.299Z,98085.31
2023-05-16T00:39:33.641Z,98076.44
2023-05-16T00:42:35.065Z,98078.00
2023-05-16T00:45:36.491Z,98075.66
2023-05-16T00:48:37.833Z,98068.50
2023-05-16T00:51:39.265Z,98071.81
2023-05-16T00:54:40.749Z,98079.69
2023-05-16T00:57:42.179Z,98073.38
2023-05-16T01:00:45.014Z,98069.94
2023-05-16T01:03:48.314Z,98066.59
2023-05-16T01:06:49.793Z,98063.94
2023-05-16T01:09:51.178Z,98063.84
2023-05-16T01:13:02.022Z,98067.22
2023-05-16T01:16:35.931Z,98069.84
2023-05-16T01:19:56.136Z,98070.72
2023-05-16T01:23:23.853Z,98074.47
2023-05-16T01:26:26.665Z,98071.88
2023-05-16T01:29:28.072Z,98071.75
2023-05-16T01:32:29.511Z,98065.75
2023-05-16T01:35:31.079Z,98056.78
2023-05-16T01:38:43.424Z,98053.53
2023-05-16T01:41:47.883Z,98044.66
2023-05-16T01:45:07.711Z,98042.28
2023-05-16T01:48:10.796Z,98037.06
2023-05-16T01:51:12.220Z,98027.28
2023-05-16T01:54:13.842Z,98033.47
2023-05-16T01:57:15.299Z,98031.47
2023-05-16T02:00:16.657Z,98033.22
2023-05-16T02:03:18.694Z,98039.97
2023-05-16T02:06:20.108Z,98033.03
2023-05-16T02:09:21.698Z,98034.78
2023-05-16T02:12:24.535Z,98037.59
2023-05-16T02:15:26.182Z,98034.22
2023-05-16T02:18:28.359Z,98032.53
2023-05-16T02:21:29.708Z,98030.72
2023-05-16T02:24:31.092Z,98028.88
2023-05-16T02:27:32.583Z,98025.56
2023-05-16T02:30:33.962Z,98022.13
2023-05-16T02:33:35.393Z,98025.22
2023-05-16T02:36:36.792Z,98019.91
2023-05-16T02:39:38.164Z,98027.00
2023-05-16T02:42:39.494Z,98025.22
2023-05-16T02:45:40.967Z,98024.19
2023-05-16T02:48:42.300Z,98023.28
2023-05-16T02:51:43.668Z,98021.78
2023-05-16T02:54:48.567Z,98023.41
2023-05-16T02:57:53.513Z,98020.84
2023-05-16T03:00:54.933Z,98024.38
2023-05-16T03:03:56.518Z,98023.38
2023-05-16T03:06:58.266Z,98024.22
2023-05-16T03:09:59.649Z,98019.75
2023-05-16T03:13:01.149Z,98019.91
2023-05-16T03:16:03.090Z,98018.19
2023-05-16T03:19:07.587Z,98024.03
2023-05-16T03:22:09.094Z,98031.09
2023-05-16T03:25:10.456Z,98026.03
2023-05-16T03:28:13.329Z,98023.47
2023-05-16T03:31:16.772Z,98027.84
2023-05-16T03:34:18.156Z,98037.38
2023-05-16T03:37:19.513Z,98031.25
2023-05-16T03:40:20.989Z,98032.16
2023-05-16T03:43:22.331Z,98029.91
2023-05-16T03:46:23.862Z,98030.78
2023-05-16T03:49:26.717Z,98036.34
2023-05-16T03:52:28.084Z,98034.88
2023-05-16T03:55:30.926Z,98032.28
2023-05-16T03:58:32.433Z,98028.72
2023-05-16T04:01:33.895Z,98029.69
2023-05-16T04:04:35.340Z,98032.41
2023-05-16T04:07:37.126Z,98028.88
2023-05-16T04:10:38.540Z,98038.47
2023-05-16T04:13:40.025Z,98038.56
2023-05-16T04:16:41.645Z,98035.78
2023-05-16T04:19:43.129Z,98040.34
2023-05-16T04:22:44.470Z,98036.16
2023-05-16T04:25:46.200Z,98043.25
2023-05-16T04:28:47.563Z,98033.63
2023-05-16T04:31:49.061Z,98043.13
2023-05-16T04:34:53.241Z,98046.50
2023-05-16T04:37:54.747Z,98043.91
2023-05-16T04:40:56.106Z,98035.16
2023-05-16T04:43:57.565Z,98039.56
2023-05-16T04:46:59.624Z,98039.41
2023-05-16T04:50:01.081Z,98035.72
2023-05-16T04:53:02.482Z,98033.13
2023-05-16T04:56:05.851Z,98038.41
2023-05-16T04:59:07.208Z,98044.38
2023-05-16T05:02:08.890Z,98034.69
2023-05-16T05:05:10.487Z,98041.75
2023-05-16T05:08:11.877Z,98046.94
2023-05-16T05:11:13.226Z,98046.84
2023-05-16T05:14:14.580Z,98051.13
2023-05-16T05:17:16.883Z,98057.06
2023-05-16T05:20:18.241Z,98064.81
2023-05-16T05:23:20.805Z,98063.09
2023-05-16T05:26:22.275Z,98069.34
2023-05-16T05:29:23.684Z,98068.41
2023-05-16T05:32:25.527Z,98061.66
2023-05-16T05:35:27.274Z,98063.53
2023-05-16T05:38:29.042Z,98058.44
2023-05-16T05:41:30.445Z,98059.56
2023-05-16T05:44:31.784Z,98062.94
2023-05-16T05:47:33.239Z,98065.75
2023-05-16T05:50:34.643Z,98063.78
2023-05-16T05:53:36.140Z,98075.16
2023-05-16T05:56:37.570Z,98069.84
2023-05-16T05:59:38.922Z,98069.84
2023-05-16T06:02:41.705Z,98074.22
2023-05-16T06:05:43.466Z,98067.31
2023-05-16T06:08:44.852Z,98075.94
2023-05-16T06:11:46.241Z,98080.31
2023-05-16T06:14:47.582Z,98078.59
2023-05-16T06:17:49.180Z,98088.97
2023-05-16T06:20:50.582Z,98087.25
2023-05-16T06:23:52.006Z,98088.00
2023-05-16T06:26:53.676Z,98085.63
2023-05-16T06:29:55.112Z,98089.88
2023-05-16T06:32:56.501Z,98095.16
2023-05-16T06:35:57.958Z,98098.63
2023-05-16T06:38:59.310Z,98100.44
2023-05-16T06:42:00.860Z,98095.16
2023-05-16T06:45:02.273Z,98096.63
2023-05-16T06:48:04.319Z,98097.53
2023-05-16T06:51:05.774Z,98103.66
2023-05-16T06:54:07.195Z,98099.16
2023-05-16T06:57:08.674Z,98107.22
2023-05-16T07:00:10.339Z,98107.25
2023-05-16T07:03:11.932Z,98119.47
2023-05-16T07:06:13.470Z,98120.16
2023-05-16T07:09:14.855Z,98123.00
2023-05-16T07:12:16.501Z,98124.66
2023-05-16T07:15:17.997Z,98130.53
2023-05-16T07:18:19.361Z,98133.38
2023-05-16T07:21:20.745Z,98145.31
2023-05-16T07:24:22.538Z,98142.81
2023-05-16T07:27:23.934Z,98147.44
2023-05-16T07:30:25.508Z,98151.69
2023-05-16T07:33:27.431Z,98151.53
2023-05-16T07:36:28.877Z,98158.06
2023-05-16T07:39:30.417Z,98158.03
2023-05-16T07:42:31.840Z,98163.13
2023-05-16T07:45:33.264Z,98164.06
2023-05-16T07:48:34.706Z,98170.13
2023-05-16T07:51:36.569Z,98175.44
2023-05-16T07:54:37.967Z,98179.84
2023-05-16T07:57:39.367Z,98182.56
2023-05-16T08:00:40.846Z,98191.28
2023-05-16T08:03:42.341Z,98184.22
2023-05-16T08:06:43.968Z,98192.91
2023-05-16T08:09:45.434Z,98202.59
2023-05-16T08:12:48.336Z,98197.22
2023-05-16T08:15:49.858Z,98201.56
2023-05-16T08:18:51.642Z,98206.88
2023-05-16T08:21:53.083Z,98213.09
2023-05-16T08:24:57.785Z,98219.34
2023-05-16T08:27:59.143Z,98215.84
2023-05-16T08:31:00.707Z,98227.00
2023-05-16T08:34:02.156Z,98228.91
2023-05-16T08:37:03.572Z,98242.09
2023-05-16T08:40:08.366Z,98236.94
2023-05-16T08:43:09.834Z,98242.03
2023-05-16T08:46:13.863Z,98250.13
2023-05-16T08:49:15.252Z,98252.72
2023-05-16T08:52:18.253Z,98249.91
2023-05-16T08:55:19.956Z,98239.31
2023-05-16T08:58:21.664Z,98236.53
2023-05-16T09:01:23.173Z,98249.72
2023-05-16T09:04:25.611Z,98247.16
2023-05-16T09:07:27.144Z,98253.13
2023-05-16T09:10:28.531Z,98252.41
2023-05-16T09:13:29.943Z,98271.63
2023-05-16T09:16:31.447Z,98271.63
2023-05-16T09:19:37.072Z,98271.59
2023-05-16T09:22:38.777Z,98262.94
2023-05-16T09:25:40.190Z,98264.50
2023-05-16T09:28:41.618Z,98266.16
2023-05-16T09:31:43.113Z,98280.22
2023-05-16T09:34:45.722Z,98280.94
2023-05-16T09:37:50.540Z,98284.47
2023-05-16T09:40:52.125Z,98291.41
2023-05-16T09:43:53.531Z,98303.75
2023-05-16T09:46:55.547Z,98310.75
2023-05-16T09:49:57.060Z,98295.81
2023-05-16T09:52:58.457Z,98306.34
2023-05-16T09:56:07.770Z,98300.97
2023-05-16T09:59:11.099Z,98305.28
2023-05-16T10:02:13.031Z,98312.28
2023-05-16T10:05:14.975Z,98317.59
2023-05-16T10:08:18.117Z,98322.84
2023-05-16T10:11:19.582Z,98336.00
2023-05-16T10:14:21.140Z,98336.03
2023-05-16T10:17:22.538Z,98330.91
2023-05-16T10:20:23.996Z,98328.31
2023-05-16T10:23:25.667Z,98325.44
2023-05-16T10:26:27.112Z,98327.06
2023-05-16T10:29:28.538Z,98337.69
2023-05-16T10:32:30.152Z,98345.56
2023-05-16T10:35:31.698Z,98346.31
2023-05-16T10:38:33.092Z,98346.44
2023-05-16T10:41:34.746Z,98340.47
2023-05-16T10:44:36.145Z,98346.59
2023-05-16T10:47:37.605Z,98335.16
2023-05-16T10:50:39.211Z,98337.72
2023-05-16T10:53:40.633Z,98342.00
2023-05-16T10:56:43.216Z,98351.63
2023-05-16T10:59:47.499Z,98346.28
2023-05-16T11:02:48.989Z,98353.34
2023-05-16T11:05:54.265Z,98351.50
2023-05-16T11:09:10.853Z,98372.44
2023-05-16T11:12:12.833Z,98370.78
2023-05-16T11:15:32.318Z,98383.03
2023-05-16T11:18:34.131Z,98374.13
2023-05-16T11:21:54.350Z,98384.53
2023-05-16T11:24:55.858Z,98391.56
2023-05-16T11:27:57.264Z,98393.25
2023-05-16T11:30:59.962Z,98394.19
2023-05-16T11:34:01.650Z,98397.38
2023-05-16T11:37:03.092Z,98412.28
2023-05-16T11:40:04.795Z,98406.06
2023-05-16T11:43:07.298Z,98421.53
2023-05-16T11:46:15.587Z,98426.00
2023-05-16T11:49:17.575Z,98421.88
2023-05-16T11:52:19.171Z,98428.84
2023-05-16T11:55:32.412Z,98442.09
2023-05-16T11:58:42.711Z,98440.25
2023-05-16T12:01:44.609Z,98442.09
2023-05-16T12:04:50.620Z,98443.06
2023-05-16T12:07:54.746Z,98439.47
2023-05-16T12:10:56.245Z,98452.00
2023-05-16T12:13:57.689Z,98452.78
2023-05-16T12:16:59.235Z,98455.44
2023-05-16T12:20:00.733Z,98465.00
2023-05-16T12:23:02.211Z,98471.16
2023-05-16T12:26:07.906Z,98470.28
2023-05-16T12:29:11.521Z,98468.41
2023-05-16T12:32:13.117Z,98479.03
2023-05-16T12:35:16.992Z,98481.56
2023-05-16T12:38:19.455Z,98485.94
2023-05-16T12:41:21.746Z,98486.81
2023-05-16T12:44:24.239Z,98481.53
2023-05-16T12:47:34.819Z,98491.16
2023-05-16T12:50:39.678Z,98493.72
2023-05-16T12:53:41.824Z,98496.41
2023-05-16T12:56:43.883Z,98498.31
2023-05-16T12:59:45.357Z,98491.28
2023-05-16T13:02:47.629Z,98491.22
2023-05-16T13:05:49.166Z,98495.50
2023-05-16T13:08:50.548Z,98503.31
2023-05-16T13:11:52.472Z,98509.44
2023-05-16T13:14:54.695Z,98515.47
2023-05-16T13:17:56.212Z,98513.78
2023-05-16T13:20:57.619Z,98506.81
2023-05-16T13:23:59.349Z,98516.44
2023-05-16T13:27:00.832Z,98517.34
2023-05-16T13:30:02.214Z,98506.09
2023-05-16T13:33:03.674Z,98517.44
2023-05-16T13:36:05.980Z,98524.31
2023-05-16T13:39:09.549Z,98531.34
2023-05-16T13:42:11.025Z,98529.59
2023-05-16T13:45:12.925Z,98537.38
2023-05-16T13:48:14.461Z,98536.56
2023-05-16T13:51:16.211Z,98537.47
2023-05-16T13:54:17.996Z,98533.91
2023-05-16T13:57:19.403Z,98546.13
2023-05-16T14:03:25.351Z,98554.84
2023-05-16T14:06:26.823Z,98554.78
2023-05-16T14:09:28.218Z,98564.38
2023-05-16T14:12:29.571Z,98563.50
2023-05-16T14:15:31.311Z,98565.31
2023-05-16T14:18:33.251Z,98570.59
2023-05-16T14:21:34.671Z,98569.69
2023-05-16T14:24:36.162Z,98575.78
2023-05-16T14:27:37.581Z,98583.72
2023-05-16T14:30:39.045Z,98581.09
2023-05-16T14:33:41.134Z,98579.31
2023-05-16T14:36:42.743Z,98582.78
2023-05-16T14:39:46.449Z,98587.13
2023-05-16T14:42:47.937Z,98591.47
2023-05-16T14:45:49.454Z,98597.59
2023-05-16T14:48:51.351Z,98591.50
2023-05-16T14:51:52.904Z,98588.88
2023-05-16T14:54:54.303Z,98598.44
2023-05-16T14:57:59.556Z,98601.03
2023-05-16T15:01:01.351Z,98611.50
2023-05-16T15:04:02.755Z,98610.63
2023-05-16T15:07:04.335Z,98604.53
2023-05-16T15:10:06.932Z,98601.88
2023-05-16T15:13:08.336Z,98614.13
2023-05-16T15:16:09.857Z,98612.38
2023-05-16T15:19:11.480Z,98618.50
2023-05-16T15:22:12.946Z,98617.63
2023-05-16T15:25:14.389Z,98628.97
2023-05-16T15:28:16.591Z,98633.25
2023-05-16T15:31:17.998Z,98626.28
2023-05-16T15:34:19.569Z,98635.03
2023-05-16T15:37:21.329Z,98635.00
2023-05-16T15:40:26.766Z,98645.44
2023-05-16T15:43:28.677Z,98641.13
2023-05-16T15:46:32.938Z,98648.06
2023-05-16T15:49:34.590Z,98651.50
2023-05-16T15:52:36.042Z,98655.88
2023-05-16T15:55:37.513Z,98663.66
2023-05-16T15:58:39.094Z,98655.84
2023-05-16T16:01:41.065Z,98656.66
2023-05-16T16:04:42.629Z,98655.75
2023-05-16T16:07:44.193Z,98669.69
2023-05-16T16:10:46.100Z,98677.50
2023-05-16T16:13:47.508Z,98673.06
2023-05-16T16:16:48.937Z,98667.97
2023-05-16T16:19:50.623Z,98667.97
2023-05-16T16:22:52.327Z,98670.53
2023-05-16T16:25:53.807Z,98679.22
2023-05-16T16:28:55.362Z,98680.97
2023-05-16T16:31:56.843Z,98687.97
2023-05-16T16:34:58.252Z,98682.75
2023-05-16T16:38:06.870Z,98683.50
2023-05-16T16:41:08.946Z,98683.50
2023-05-16T16:44:10.548Z,98680.91
2023-05-16T16:47:12.384Z,98688.81
2023-05-16T16:50:13.987Z,98689.63
2023-05-16T16:53:15.599Z,98684.47
2023-05-16T16:56:17.302Z,98692.25
2023-05-16T16:59:18.758Z,98682.56
2023-05-16T17:02:20.226Z,98684.25
2023-05-16T17:05:21.666Z,98670.28
2023-05-16T17:08:23.042Z,98670.28
2023-05-16T17:11:24.558Z,98678.25
2023-05-16T17:14:26.339Z,98683.38
2023-05-16T17:17:27.939Z,98678.06
2023-05-16T17:20:29.463Z,98658.94
2023-05-16T17:23:31.034Z,98667.66
2023-05-16T17:26:32.450Z,98672.84
2023-05-16T17:29:33.883Z,98671.94
2023-05-16T17:32:35.328Z,98676.25
2023-05-16T17:35:36.865Z,98675.34
2023-05-16T17:38:38.310Z,98676.13
2023-05-16T17:41:39.791Z,98673.59
2023-05-16T17:44:41.476Z,98674.53
2023-05-16T17:47:43.124Z,98678.16
2023-05-16T17:50:44.807Z,98682.53
2023-05-16T17:53:46.362Z,98685.22
2023-05-16T17:56:48.033Z,98681.66
2023-05-16T17:59:49.437Z,98685.13
2023-05-16T18:02:52.260Z,98686.06
2023-05-16T18:05:54.001Z,98682.41
2023-05-16T18:08:55.574Z,98685.06
2023-05-16T18:11:56.987Z,98688.63
2023-05-16T18:14:58.402Z,98686.88
2023-05-16T18:18:00.182Z,98693.81
2023-05-16T18:21:01.677Z,98697.31
2023-05-16T18:24:03.112Z,98692.91
2023-05-16T18:27:04.577Z,98690.44
2023-05-16T18:30:06.265Z,98688.75
2023-05-16T18:33:07.725Z,98699.22
2023-05-16T18:36:09.220Z,98682.66
2023-05-16T18:39:10.817Z,98691.41
2023-05-16T18:42:12.274Z,98696.69
2023-05-16T18:45:13.711Z,98699.31
2023-05-16T18:48:15.344Z,98694.09
2023-05-16T18:51:16.943Z,98688.88
2023-05-16T18:54:18.333Z,98682.75
2023-05-16T18:57:19.777Z,98685.47
2023-05-16T19:00:21.407Z,98682.00
2023-05-16T19:03:23.061Z,98684.69
2023-05-16T19:06:24.569Z,98686.41
2023-05-16T19:09:26.114Z,98688.13
2023-05-16T19:12:27.554Z,98687.25
2023-05-16T19:15:29.202Z,98689.03
2023-05-16T19:18:30.806Z,98694.25
2023-05-16T19:21:32.289Z,98696.00
2023-05-16T19:24:33.667Z,98697.75
2023-05-16T19:27:35.877Z,98693.41
2023-05-16T19:30:39.317Z,98698.63
2023-05-16T19:33:42.756Z,98697.78
2023-05-16T19:36:44.180Z,98703.84
2023-05-16T19:39:45.602Z,98707.31
2023-05-16T19:42:46.997Z,98703.84
2023-05-16T19:45:48.621Z,98716.00
2023-05-16T19:48:50.270Z,98712.50
2023-05-16T19:51:51.841Z,98707.25
2023-05-16T19:54:53.319Z,98705.50
2023-05-16T19:57:55.027Z,98706.38
2023-05-16T20:00:57.266Z,98708.13
2023-05-16T20:04:00.750Z,98709.84
2023-05-16T20:07:02.263Z,98710.63
2023-05-16T20:10:03.667Z,98714.03
2023-05-16T20:13:05.049Z,98706.16
2023-05-16T20:16:06.672Z,98712.25
2023-05-16T20:19:08.165Z,98724.44
2023-05-16T20:22:10.017Z,98721.81
2023-05-16T20:25:11.957Z,98730.47
2023-05-16T20:28:13.442Z,98718.31
2023-05-16T20:31:14.846Z,98726.09
2023-05-16T20:34:16.256Z,98726.09
2023-05-16T20:37:17.665Z,98726.94
2023-05-16T20:40:19.041Z,98732.16
2023-05-16T20:43:20.473Z,98738.09
2023-05-16T20:46:21.840Z,98735.50
2023-05-16T20:49:23.266Z,98737.16
2023-05-16T20:52:24.726Z,98739.75
2023-05-16T20:55:26.341Z,98747.50
2023-05-16T20:58:27.981Z,98740.50
2023-05-16T21:01:29.547Z,98742.22
2023-05-16T21:04:31.191Z,98735.28
2023-05-16T21:07:32.737Z,98737.03
2023-05-16T21:10:34.130Z,98744.75
2023-05-16T21:13:35.815Z,98751.59
2023-05-16T21:16:37.259Z,98750.59
2023-05-16T21:19:38.845Z,98749.75
2023-05-16T21:22:40.870Z,98746.28
2023-05-16T21:25:42.327Z,98744.38
2023-05-16T21:28:54.532Z,98740.03
2023-05-16T21:31:56.736Z,98750.47
2023-05-16T21:35:01.331Z,98753.94
2023-05-16T21:38:02.777Z,98756.47
2023-05-16T21:41:04.192Z,98762.50
2023-05-16T21:44:06.352Z,98771.00
2023-05-16T21:47:07.741Z,98776.16
2023-05-16T21:50:09.416Z,98762.25
2023-05-16T21:53:10.851Z,98768.28
2023-05-16T21:56:12.566Z,98774.19
2023-05-16T21:59:14.025Z,98780.13
2023-05-16T22:02:15.406Z,98781.75
2023-05-16T22:05:19.186Z,98775.53
2023-05-16T22:08:20.630Z,98779.06
2023-05-16T22:11:22.348Z,98782.56
2023-05-16T22:14:23.765Z,98785.09
2023-05-16T22:17:25.301Z,98782.44
2023-05-16T22:20:26.790Z,98787.66
2023-05-16T22:23:28.263Z,98790.94
2023-05-16T22:26:29.715Z,98794.56
2023-05-16T22:29:37.734Z,98799.41
2023-05-16T22:32:39.189Z,98805.34
2023-05-16T22:35:40.653Z,98801.72
2023-05-16T22:38:42.027Z,98808.50
2023-05-16T22:41:43.510Z,98805.88
2023-05-16T22:44:44.910Z,98805.69
2023-05-16T22:47:46.511Z,98815.13
2023-05-16T22:50:47.960Z,98810.59
2023-05-16T22:53:49.390Z,98810.59
2023-05-16T22:56:51.477Z,98813.19
2023-05-16T22:59:52.878Z,98811.47
2023-05-16T23:02:54.593Z,98812.47
2023-05-16T23:05:56.066Z,98817.28
2023-05-16T23:08:57.601Z,98819.78
2023-05-16T23:11:59.172Z,98827.59
2023-05-16T23:15:00.605Z,98833.38
2023-05-16T23:18:02.087Z,98820.25
2023-05-16T23:21:03.624Z,98823.53
2023-05-16T23:24:05.092Z,98823.50
2023-05-16T23:27:06.502Z,98820.66
2023-05-16T23:30:09.093Z,98819.00
2023-05-16T23:33:10.651Z,98813.81
2023-05-16T23:36:12.174Z,98822.59
2023-05-16T23:39:13.636Z,98818.28
2023-05-16T23:42:15.030Z,98825.03
2023-05-16T23:45:16.502Z,98831.94
2023-05-16T23:48:18.059Z,98822.56
2023-05-16T23:51:19.579Z,98825.22
2023-05-16T23:54:21.028Z,98827.03
2023-05-16T23:57:22.404Z,98832.59
